sensor_id;sensor_type;location;lat;lon;timestamp;pressure;altitude;pressure_sealevel;temperature;humidity
10658;BME280;5377;43.276;26.930;2023-04-26T00:01:33;98100.22;;;10.99;100.00
10658;BME280;5377;43.276;26.930;2023-04-26T00:04:00;98097.53;;;10.87;100.00
10658;BME280;5377;43.276;26.930;2023-04-26T00:06:27;98108.69;;;10.84;100.00
10658;BME280;5377;43.276;26.930;2023-04-26T00:08:56;98101.25;;;10.86;100.00
10658;BME280;5377;43.276;26.930;2023-04-26T00:11:22;98107.06;;;10.83;100.00
10658;BME280;5377;43.276;26.930;2023-04-26T00:13:49;98104.03;;;10.80;100.00
10658;BME280;5377;43.276;26.930;2023-04-26T00:16:16;98095.72;;;10.70;100.00
10658;BME280;5377;43.276;26.930;2023-04-26T00:18:44;98101.88;;;10.70;100.00
10658;BME280;5377;43.276;26.930;2023-04-26T00:21:11;98111.41;;;10.66;100.00
10658;BME280;5377;43.276;26.930;2023-04-26T00:23:38;98109.78;;;10.65;100.00
10658;BME280;5377;43.276;26.930;2023-04-26T00:26:06;98100.72;;;10.66;100.00
10658;BME280;5377;43.276;26.930;2023-04-26T00:28:33;98116.09;;;10.71;100.00
10658;BME280;5377;43.276;26.930;2023-04-26T00:31:00;98122.38;;;10.65;100.00
10658;BME280;5377;43.276;26.930;2023-04-26T00:33:27;98099.63;;;10.55;100.00
10658;BME280;5377;43.276;26.930;2023-04-26T00:35:54;98111.53;;;10.59;100.00
10658;BME280;5377;43.276;26.930;2023-04-26T00:38:21;98112.81;;;10.69;100.00
10658;BME280;5377;43.276;26.930;2023-04-26T00:40:48;98108.81;;;10.78;100.00
10658;BME280;5377;43.276;26.930;2023-04-26T00:43:16;98105.25;;;10.66;100.00
10658;BME280;5377;43.276;26.930;2023-04-26T00:45:43;98104.66;;;10.63;100.00
10658;BME280;5377;43.276;26.930;2023-04-26T00:48:11;98099.78;;;10.60;100.00
10658;BME280;5377;43.276;26.930;2023-04-26T00:50:37;98099.19;;;10.58;100.00
10658;BME280;5377;43.276;26.930;2023-04-26T00:53:04;98093.34;;;10.50;100.00
10658;BME280;5377;43.276;26.930;2023-04-26T00:55:32;98083.31;;;10.45;100.00
10658;BME280;5377;43.276;26.930;2023-04-26T00:57:59;98091.00;;;10.42;100.00
10658;BME280;5377;43.276;26.930;2023-04-26T01:00:27;98098.09;;;10.48;100.00
10658;BME280;5377;43.276;26.930;2023-04-26T01:02:54;98094.47;;;10.42;100.00
10658;BME280;5377;43.276;26.930;2023-04-26T01:05:22;98100.25;;;10.39;100.00
10658;BME280;5377;43.276;26.930;2023-04-26T01:07:48;98104.53;;;10.28;100.00
10658;BME280;5377;43.276;26.930;2023-04-26T01:10:16;98103.72;;;10.28;100.00
10658;BME280;5377;43.276;26.930;2023-04-26T01:12:43;98105.81;;;10.26;100.00
10658;BME280;5377;43.276;26.930;2023-04-26T01:15:10;98115.72;;;10.37;100.00
10658;BME280;5377;43.276;26.930;2023-04-26T01:17:38;98107.09;;;10.35;100.00
10658;BME280;5377;43.276;26.930;2023-04-26T01:20:06;98110.38;;;10.19;100.00
10658;BME280;5377;43.276;26.930;2023-04-26T01:22:36;98109.06;;;10.28;100.00
10658;BME280;5377;43.276;26.930;2023-04-26T01:25:03;98113.25;;;10.24;100.00
10658;BME280;5377;43.276;26.930;2023-04-26T01:27:33;98103.13;;;10.26;100.00
10658;BME280;5377;43.276;26.930;2023-04-26T01:30:00;98104.44;;;10.35;100.00
10658;BME280;5377;43.276;26.930;2023-04-26T01:32:27;98099.84;;;10.24;100.00
10658;BME280;5377;43.276;26.930;2023-04-26T01:34:53;98106.63;;;10.26;100.00
10658;BME280;5377;43.276;26.930;2023-04-26T01:37:20;98104.53;;;10.28;100.00
10658;BME280;5377;43.276;26.930;2023-04-26T01:39:50;98101.97;;;10.34;100.00
10658;BME280;5377;43.276;26.930;2023-04-26T01:42:17;98097.44;;;10.34;100.00
10658;BME280;5377;43.276;26.930;2023-04-26T01:44:43;98106.38;;;10.28;100.00
10658;BME280;5377;43.276;26.930;2023-04-26T01:47:10;98100.81;;;10.29;100.00
10658;BME280;5377;43.276;26.930;2023-04-26T01:49:37;98091.97;;;10.29;100.00
10658;BME280;5377;43.276;26.930;2023-04-26T01:52:04;98079.06;;;10.08;100.00
10658;BME280;5377;43.276;26.930;2023-04-26T01:54:30;98092.19;;;10.27;100.00
10658;BME280;5377;43.276;26.930;2023-04-26T01:56:59;98089.28;;;10.29;100.00
10658;BME280;5377;43.276;26.930;2023-04-26T01:59:26;98088.56;;;10.22;100.00
10658;BME280;5377;43.276;26.930;2023-04-26T02:01:53;98093.53;;;10.18;100.00
10658;BME280;5377;43.276;26.930;2023-04-26T02:04:20;98082.22;;;10.16;100.00
10658;BME280;5377;43.276;26.930;2023-04-26T02:06:48;98086.31;;;10.19;100.00
10658;BME280;5377;43.276;26.930;2023-04-26T02:09:15;98077.47;;;10.00;100.00
10658;BME280;5377;43.276;26.930;2023-04-26T02:11:42;98077.69;;;9.98;100.00
10658;BME280;5377;43.276;26.930;2023-04-26T02:14:10;98077.78;;;9.92;100.00
10658;BME280;5377;43.276;26.930;2023-04-26T02:16:38;98070.13;;;9.95;100.00
10658;BME280;5377;43.276;26.930;2023-04-26T02:19:05;98076.75;;;9.93;100.00
10658;BME280;5377;43.276;26.930;2023-04-26T02:21:49;98076.38;;;9.89;100.00
10658;BME280;5377;43.276;26.930;2023-04-26T02:24:16;98073.13;;;9.87;100.00
10658;BME280;5377;43.276;26.930;2023-04-26T02:26:43;98064.50;;;9.85;100.00
10658;BME280;5377;43.276;26.930;2023-04-26T02:29:11;98072.88;;;9.89;100.00
10658;BME280;5377;43.276;26.930;2023-04-26T02:31:38;98070.66;;;9.86;100.00
10658;BME280;5377;43.276;26.930;2023-04-26T02:34:04;98062.56;;;9.92;100.00
10658;BME280;5377;43.276;26.930;2023-04-26T02:36:31;98076.88;;;9.98;100.00
10658;BME280;5377;43.276;26.930;2023-04-26T02:38:58;98074.16;;;9.86;100.00
10658;BME280;5377;43.276;26.930;2023-04-26T02:41:25;98079.66;;;9.91;100.00
10658;BME280;5377;43.276;26.930;2023-04-26T02:43:52;98080.91;;;9.89;100.00
10658;BME280;5377;43.276;26.930;2023-04-26T02:46:20;98081.06;;;9.94;100.00
10658;BME280;5377;43.276;26.930;2023-04-26T02:48:46;98078.31;;;9.82;100.00
10658;BME280;5377;43.276;26.930;2023-04-26T02:51:13;98084.63;;;9.88;100.00
10658;BME280;5377;43.276;26.930;2023-04-26T02:53:40;98088.50;;;9.92;100.00
10658;BME280;5377;43.276;26.930;2023-04-26T02:56:07;98094.19;;;9.95;100.00
10658;BME280;5377;43.276;26.930;2023-04-26T02:58:33;98085.59;;;9.93;100.00
10658;BME280;5377;43.276;26.930;2023-04-26T03:01:00;98079.69;;;10.03;100.00
10658;BME280;5377;43.276;26.930;2023-04-26T03:03:29;98072.06;;;10.07;100.00
10658;BME280;5377;43.276;26.930;2023-04-26T03:05:56;98072.44;;;10.10;100.00
10658;BME280;5377;43.276;26.930;2023-04-26T03:08:23;98076.97;;;10.10;100.00
10658;BME280;5377;43.276;26.930;2023-04-26T03:10:50;98071.16;;;10.13;100.00
10658;BME280;5377;43.276;26.930;2023-04-26T03:13:17;98074.28;;;10.10;100.00
10658;BME280;5377;43.276;26.930;2023-04-26T03:15:44;98067.22;;;10.15;100.00
10658;BME280;5377;43.276;26.930;2023-04-26T03:18:11;98082.00;;;10.18;100.00
10658;BME280;5377;43.276;26.930;2023-04-26T03:20:40;98081.94;;;10.24;100.00
10658;BME280;5377;43.276;26.930;2023-04-26T03:23:07;98081.25;;;10.29;100.00
10658;BME280;5377;43.276;26.930;2023-04-26T03:25:34;98083.25;;;10.34;100.00
10658;BME280;5377;43.276;26.930;2023-04-26T03:28:01;98084.75;;;10.29;100.00
10658;BME280;5377;43.276;26.930;2023-04-26T03:30:28;98083.72;;;10.30;100.00
10658;BME280;5377;43.276;26.930;2023-04-26T03:32:55;98083.13;;;10.28;100.00
10658;BME280;5377;43.276;26.930;2023-04-26T03:35:21;98082.75;;;10.25;100.00
10658;BME280;5377;43.276;26.930;2023-04-26T03:37:50;98065.94;;;10.18;100.00
10658;BME280;5377;43.276;26.930;2023-04-26T03:40:17;98078.84;;;10.39;100.00
10658;BME280;5377;43.276;26.930;2023-04-26T03:42:43;98070.31;;;10.30;100.00
10658;BME280;5377;43.276;26.930;2023-04-26T03:45:10;98080.22;;;10.30;100.00
10658;BME280;5377;43.276;26.930;2023-04-26T03:47:37;98087.19;;;10.31;100.00
10658;BME280;5377;43.276;26.930;2023-04-26T03:50:05;98088.03;;;10.13;100.00
10658;BME280;5377;43.276;26.930;2023-04-26T03:52:32;98091.81;;;10.06;100.00
10658;BME280;5377;43.276;26.930;2023-04-26T03:55:00;98088.13;;;10.07;100.00
10658;BME280;5377;43.276;26.930;2023-04-26T03:57:27;98093.38;;;10.13;100.00
10658;BME280;5377;43.276;26.930;2023-04-26T03:59:54;98094.72;;;10.22;100.00
10658;BME280;5377;43.276;26.930;2023-04-26T04:02:22;98098.03;;;10.36;100.00
10658;BME280;5377;43.276;26.930;2023-04-26T04:04:49;98098.72;;;10.31;100.00
10658;BME280;5377;43.276;26.930;2023-04-26T04:07:16;98099.22;;;10.40;100.00
10658;BME280;5377;43.276;26.930;2023-04-26T04:09:43;98099.63;;;10.55;100.00
10658;BME280;5377;43.276;26.930;2023-04-26T04:12:11;98101.06;;;10.70;100.00
10658;BME280;5377;43.276;26.930;2023-04-26T04:14:38;98098.69;;;10.80;100.00
10658;BME280;5377;43.276;26.930;2023-04-26T04:17:05;98106.94;;;10.78;100.00
10658;BME280;5377;43.276;26.930;2023-04-26T04:19:31;98100.78;;;10.78;100.00
10658;BME280;5377;43.276;26.930;2023-04-26T04:21:58;98112.78;;;10.87;100.00
10658;BME280;5377;43.276;26.930;2023-04-26T04:24:25;98108.13;;;10.94;100.00
10658;BME280;5377;43.276;26.930;2023-04-26T04:26:52;98115.69;;;10.97;100.00
10658;BME280;5377;43.276;26.930;2023-04-26T04:29:20;98119.22;;;11.09;100.00
10658;BME280;5377;43.276;26.930;2023-04-26T04:31:47;98113.31;;;11.19;100.00
10658;BME280;5377;43.276;26.930;2023-04-26T04:34:14;98073.19;;;11.01;100.00
10658;BME280;5377;43.276;26.930;2023-04-26T04:36:41;98116.56;;;11.21;100.00
10658;BME280;5377;43.276;26.930;2023-04-26T04:39:08;98112.03;;;11.33;100.00
10658;BME280;5377;43.276;26.930;2023-04-26T04:41:40;98113.31;;;11.31;100.00
10658;BME280;5377;43.276;26.930;2023-04-26T04:44:12;98114.00;;;11.38;100.00
10658;BME280;5377;43.276;26.930;2023-04-26T04:46:41;98111.94;;;11.51;100.00
10658;BME280;5377;43.276;26.930;2023-04-26T04:49:08;98113.53;;;11.64;100.00
10658;BME280;5377;43.276;26.930;2023-04-26T04:51:35;98109.81;;;11.65;100.00
10658;BME280;5377;43.276;26.930;2023-04-26T04:54:09;98104.13;;;11.85;100.00
10658;BME280;5377;43.276;26.930;2023-04-26T04:56:36;98103.31;;;11.84;100.00
10658;BME280;5377;43.276;26.930;2023-04-26T04:59:03;98094.03;;;12.04;100.00
10658;BME280;5377;43.276;26.930;2023-04-26T05:01:30;98089.56;;;12.09;100.00
10658;BME280;5377;43.276;26.930;2023-04-26T05:03:59;98092.91;;;11.88;100.00
10658;BME280;5377;43.276;26.930;2023-04-26T05:06:25;98098.97;;;11.95;100.00
10658;BME280;5377;43.276;26.930;2023-04-26T05:08:53;98082.72;;;12.02;100.00
10658;BME280;5377;43.276;26.930;2023-04-26T05:11:20;98094.94;;;12.09;100.00
10658;BME280;5377;43.276;26.930;2023-04-26T05:13:47;98096.19;;;12.30;100.00
10658;BME280;5377;43.276;26.930;2023-04-26T05:16:14;98091.47;;;12.37;100.00
10658;BME280;5377;43.276;26.930;2023-04-26T05:18:42;98093.78;;;12.45;100.00
10658;BME280;5377;43.276;26.930;2023-04-26T05:21:10;98089.75;;;12.31;100.00
10658;BME280;5377;43.276;26.930;2023-04-26T05:23:36;98093.91;;;12.39;100.00
10658;BME280;5377;43.276;26.930;2023-04-26T05:26:04;98097.31;;;12.63;100.00
10658;BME280;5377;43.276;26.930;2023-04-26T05:28:31;98089.34;;;12.51;100.00
10658;BME280;5377;43.276;26.930;2023-04-26T05:30:58;98091.72;;;12.64;100.00
10658;BME280;5377;43.276;26.930;2023-04-26T05:33:26;98085.13;;;12.43;100.00
10658;BME280;5377;43.276;26.930;2023-04-26T05:35:53;98094.94;;;12.49;100.00
10658;BME280;5377;43.276;26.930;2023-04-26T05:38:23;98100.00;;;12.34;100.00
10658;BME280;5377;43.276;26.930;2023-04-26T05:40:50;98102.69;;;12.34;100.00
10658;BME280;5377;43.276;26.930;2023-04-26T05:43:17;98099.69;;;12.59;100.00
10658;BME280;5377;43.276;26.930;2023-04-26T05:45:49;98103.59;;;12.40;100.00
10658;BME280;5377;43.276;26.930;2023-04-26T05:48:16;98103.50;;;12.35;100.00
10658;BME280;5377;43.276;26.930;2023-04-26T05:50:43;98102.22;;;12.37;100.00
10658;BME280;5377;43.276;26.930;2023-04-26T05:53:10;98107.84;;;12.64;100.00
10658;BME280;5377;43.276;26.930;2023-04-26T05:55:39;98095.53;;;12.52;100.00
10658;BME280;5377;43.276;26.930;2023-04-26T05:58:06;98101.41;;;12.82;100.00
10658;BME280;5377;43.276;26.930;2023-04-26T06:00:33;98102.66;;;12.91;100.00
10658;BME280;5377;43.276;26.930;2023-04-26T06:03:00;98097.69;;;13.00;100.00
10658;BME280;5377;43.276;26.930;2023-04-26T06:05:26;98091.88;;;13.20;100.00
10658;BME280;5377;43.276;26.930;2023-04-26T06:07:53;98096.34;;;13.31;100.00
10658;BME280;5377;43.276;26.930;2023-04-26T06:10:20;98097.34;;;13.25;100.00
10658;BME280;5377;43.276;26.930;2023-04-26T06:12:48;98086.22;;;13.55;100.00
10658;BME280;5377;43.276;26.930;2023-04-26T06:15:15;98086.63;;;13.63;100.00
10658;BME280;5377;43.276;26.930;2023-04-26T06:17:42;98096.59;;;13.85;100.00
10658;BME280;5377;43.276;26.930;2023-04-26T06:20:09;98090.13;;;13.86;100.00
10658;BME280;5377;43.276;26.930;2023-04-26T06:22:36;98076.81;;;13.96;100.00
10658;BME280;5377;43.276;26.930;2023-04-26T06:25:05;98071.91;;;14.36;100.00
10658;BME280;5377;43.276;26.930;2023-04-26T06:27:32;98063.63;;;14.65;100.00
10658;BME280;5377;43.276;26.930;2023-04-26T06:30:00;98051.56;;;14.73;100.00
10658;BME280;5377;43.276;26.930;2023-04-26T06:32:28;98049.72;;;15.10;100.00
10658;BME280;5377;43.276;26.930;2023-04-26T06:34:54;98054.81;;;15.44;100.00
10658;BME280;5377;43.276;26.930;2023-04-26T06:37:21;98044.19;;;15.64;100.00
10658;BME280;5377;43.276;26.930;2023-04-26T06:39:48;98050.47;;;15.38;91.26
10658;BME280;5377;43.276;26.930;2023-04-26T06:42:15;98046.44;;;15.40;91.07
10658;BME280;5377;43.276;26.930;2023-04-26T06:44:42;98052.84;;;15.29;88.41
10658;BME280;5377;43.276;26.930;2023-04-26T06:47:10;98047.47;;;15.34;86.82
10658;BME280;5377;43.276;26.930;2023-04-26T06:49:37;98047.75;;;15.38;88.11
10658;BME280;5377;43.276;26.930;2023-04-26T06:52:03;98050.13;;;15.29;86.81
10658;BME280;5377;43.276;26.930;2023-04-26T06:54:31;98065.97;;;15.20;88.44
10658;BME280;5377;43.276;26.930;2023-04-26T06:56:58;98065.06;;;15.05;86.63
10658;BME280;5377;43.276;26.930;2023-04-26T06:59:25;98067.56;;;14.84;86.71
10658;BME280;5377;43.276;26.930;2023-04-26T07:01:52;98064.28;;;14.77;88.16
10658;BME280;5377;43.276;26.930;2023-04-26T07:04:21;98063.47;;;14.50;91.07
10658;BME280;5377;43.276;26.930;2023-04-26T07:06:47;98053.69;;;14.71;92.71
10658;BME280;5377;43.276;26.930;2023-04-26T07:09:14;98050.84;;;14.82;90.23
10658;BME280;5377;43.276;26.930;2023-04-26T07:11:44;98047.22;;;14.98;91.07
10658;BME280;5377;43.276;26.930;2023-04-26T07:14:10;98050.59;;;15.21;89.54
10658;BME280;5377;43.276;26.930;2023-04-26T07:16:37;98050.41;;;15.27;90.50
10658;BME280;5377;43.276;26.930;2023-04-26T07:19:04;98049.84;;;15.63;85.12
10658;BME280;5377;43.276;26.930;2023-04-26T07:21:33;98054.78;;;15.81;83.83
10658;BME280;5377;43.276;26.930;2023-04-26T07:24:00;98048.81;;;15.74;84.38
10658;BME280;5377;43.276;26.930;2023-04-26T07:26:27;98052.66;;;15.93;85.01
10658;BME280;5377;43.276;26.930;2023-04-26T07:28:54;98045.75;;;16.22;80.35
10658;BME280;5377;43.276;26.930;2023-04-26T07:31:21;98050.69;;;16.41;77.12
10658;BME280;5377;43.276;26.930;2023-04-26T07:33:47;98051.78;;;16.40;75.97
10658;BME280;5377;43.276;26.930;2023-04-26T07:36:14;98053.66;;;16.34;75.68
10658;BME280;5377;43.276;26.930;2023-04-26T07:38:42;98052.03;;;16.33;75.04
10658;BME280;5377;43.276;26.930;2023-04-26T07:41:09;98045.28;;;16.41;74.24
10658;BME280;5377;43.276;26.930;2023-04-26T07:43:37;98054.88;;;16.01;74.93
10658;BME280;5377;43.276;26.930;2023-04-26T07:46:04;98053.88;;;16.28;74.75
10658;BME280;5377;43.276;26.930;2023-04-26T07:48:31;98050.69;;;16.36;73.84
10658;BME280;5377;43.276;26.930;2023-04-26T07:51:06;98053.88;;;16.28;73.29
10658;BME280;5377;43.276;26.930;2023-04-26T07:53:33;98053.94;;;16.38;73.71
10658;BME280;5377;43.276;26.930;2023-04-26T07:56:03;98050.69;;;16.46;73.17
10658;BME280;5377;43.276;26.930;2023-04-26T07:58:30;98053.97;;;16.58;73.62
10658;BME280;5377;43.276;26.930;2023-04-26T08:00:57;98064.72;;;16.33;73.78
10658;BME280;5377;43.276;26.930;2023-04-26T08:03:24;98066.84;;;16.20;72.71
10658;BME280;5377;43.276;26.930;2023-04-26T08:05:51;98058.97;;;16.14;73.92
10658;BME280;5377;43.276;26.930;2023-04-26T08:08:20;98061.44;;;16.20;74.35
10658;BME280;5377;43.276;26.930;2023-04-26T08:10:47;98054.06;;;16.01;75.21
10658;BME280;5377;43.276;26.930;2023-04-26T08:13:15;98051.91;;;15.98;75.77
10658;BME280;5377;43.276;26.930;2023-04-26T08:15:42;98064.53;;;15.87;77.66
10658;BME280;5377;43.276;26.930;2023-04-26T08:18:09;98055.25;;;15.68;79.57
10658;BME280;5377;43.276;26.930;2023-04-26T08:20:36;98065.94;;;15.57;82.34
10658;BME280;5377;43.276;26.930;2023-04-26T08:23:02;98064.59;;;15.55;83.26
10658;BME280;5377;43.276;26.930;2023-04-26T08:25:29;98073.47;;;15.50;82.23
10658;BME280;5377;43.276;26.930;2023-04-26T08:27:59;98069.66;;;15.46;75.74
10658;BME280;5377;43.276;26.930;2023-04-26T08:30:27;98069.34;;;15.38;74.19
10658;BME280;5377;43.276;26.930;2023-04-26T08:32:54;98069.19;;;15.17;68.57
10658;BME280;5377;43.276;26.930;2023-04-26T08:35:21;98075.31;;;15.08;69.71
10658;BME280;5377;43.276;26.930;2023-04-26T08:37:48;98088.75;;;15.03;70.66
10658;BME280;5377;43.276;26.930;2023-04-26T08:40:21;98076.44;;;15.12;71.71
10658;BME280;5377;43.276;26.930;2023-04-26T08:42:48;98080.78;;;15.18;71.77
10658;BME280;5377;43.276;26.930;2023-04-26T08:45:17;98077.59;;;15.26;69.91
10658;BME280;5377;43.276;26.930;2023-04-26T08:47:47;98077.59;;;15.26;70.97
10658;BME280;5377;43.276;26.930;2023-04-26T08:50:15;98084.13;;;15.30;72.09
10658;BME280;5377;43.276;26.930;2023-04-26T08:52:42;98073.44;;;15.45;73.23
10658;BME280;5377;43.276;26.930;2023-04-26T08:55:10;98079.53;;;15.63;73.34
10658;BME280;5377;43.276;26.930;2023-04-26T08:57:39;98039.59;;;15.65;71.62
10658;BME280;5377;43.276;26.930;2023-04-26T09:00:07;98078.16;;;16.12;71.48
10658;BME280;5377;43.276;26.930;2023-04-26T09:02:36;98077.16;;;16.39;72.18
10658;BME280;5377;43.276;26.930;2023-04-26T09:05:08;98069.09;;;16.59;69.54
10658;BME280;5377;43.276;26.930;2023-04-26T09:07:39;98074.31;;;16.71;67.44
10658;BME280;5377;43.276;26.930;2023-04-26T09:10:06;98071.88;;;16.84;67.64
10658;BME280;5377;43.276;26.930;2023-04-26T09:12:34;98064.59;;;17.15;68.37
10658;BME280;5377;43.276;26.930;2023-04-26T09:15:01;98066.19;;;17.42;67.62
10658;BME280;5377;43.276;26.930;2023-04-26T09:17:30;98061.03;;;17.51;65.20
10658;BME280;5377;43.276;26.930;2023-04-26T09:19:58;98047.47;;;17.56;64.74
10658;BME280;5377;43.276;26.930;2023-04-26T09:22:30;98051.13;;;18.16;66.20
10658;BME280;5377;43.276;26.930;2023-04-26T09:24:58;98049.19;;;18.21;62.15
10658;BME280;5377;43.276;26.930;2023-04-26T09:27:32;98057.38;;;18.60;60.69
10658;BME280;5377;43.276;26.930;2023-04-26T09:30:03;98040.91;;;18.91;57.52
10658;BME280;5377;43.276;26.930;2023-04-26T09:32:46;98042.19;;;19.32;56.98
10658;BME280;5377;43.276;26.930;2023-04-26T09:35:25;98044.47;;;19.20;53.88
10658;BME280;5377;43.276;26.930;2023-04-26T09:37:55;98045.53;;;19.24;55.51
10658;BME280;5377;43.276;26.930;2023-04-26T09:40:23;98034.81;;;19.38;53.77
10658;BME280;5377;43.276;26.930;2023-04-26T09:42:58;98049.47;;;18.69;54.28
10658;BME280;5377;43.276;26.930;2023-04-26T09:45:25;98036.81;;;18.05;54.80
10658;BME280;5377;43.276;26.930;2023-04-26T09:47:52;98035.31;;;18.28;54.13
10658;BME280;5377;43.276;26.930;2023-04-26T09:50:29;98031.66;;;17.98;55.33
10658;BME280;5377;43.276;26.930;2023-04-26T09:52:58;98032.63;;;18.28;54.97
10658;BME280;5377;43.276;26.930;2023-04-26T09:55:26;98032.56;;;18.38;54.22
10658;BME280;5377;43.276;26.930;2023-04-26T09:57:53;98029.25;;;18.51;54.41
10658;BME280;5377;43.276;26.930;2023-04-26T10:00:20;98019.63;;;18.74;53.66
10658;BME280;5377;43.276;26.930;2023-04-26T10:02:47;98019.06;;;19.11;53.97
10658;BME280;5377;43.276;26.930;2023-04-26T10:05:14;98009.44;;;19.24;52.68
10658;BME280;5377;43.276;26.930;2023-04-26T10:07:41;98016.75;;;19.52;51.15
10658;BME280;5377;43.276;26.930;2023-04-26T10:10:10;97997.94;;;19.61;51.40
10658;BME280;5377;43.276;26.930;2023-04-26T10:12:39;98008.06;;;19.55;51.61
10658;BME280;5377;43.276;26.930;2023-04-26T10:15:08;98006.25;;;19.41;51.40
10658;BME280;5377;43.276;26.930;2023-04-26T10:17:35;98002.13;;;20.20;52.97
10658;BME280;5377;43.276;26.930;2023-04-26T10:20:03;97994.53;;;20.92;49.98
10658;BME280;5377;43.276;26.930;2023-04-26T10:22:38;97991.88;;;21.52;48.83
10658;BME280;5377;43.276;26.930;2023-04-26T10:25:07;97989.44;;;22.05;48.51
10658;BME280;5377;43.276;26.930;2023-04-26T10:27:51;97988.13;;;22.75;47.25
10658;BME280;5377;43.276;26.930;2023-04-26T10:30:21;97978.69;;;22.95;46.97
10658;BME280;5377;43.276;26.930;2023-04-26T10:33:15;97987.50;;;23.23;43.95
10658;BME280;5377;43.276;26.930;2023-04-26T10:36:04;97994.69;;;21.88;46.31
10658;BME280;5377;43.276;26.930;2023-04-26T10:38:32;98003.84;;;21.37;46.19
10658;BME280;5377;43.276;26.930;2023-04-26T10:41:27;97998.50;;;21.13;47.34
10658;BME280;5377;43.276;26.930;2023-04-26T10:43:57;97998.03;;;21.58;45.97
10658;BME280;5377;43.276;26.930;2023-04-26T10:46:33;97990.44;;;21.82;43.15
10658;BME280;5377;43.276;26.930;2023-04-26T10:49:12;97985.31;;;21.53;42.59
10658;BME280;5377;43.276;26.930;2023-04-26T10:51:39;97984.69;;;21.56;42.52
10658;BME280;5377;43.276;26.930;2023-04-26T10:54:06;97975.69;;;21.83;43.25
10658;BME280;5377;43.276;26.930;2023-04-26T10:56:57;97973.38;;;22.04;41.45
10658;BME280;5377;43.276;26.930;2023-04-26T10:59:25;97959.84;;;22.71;41.71
10658;BME280;5377;43.276;26.930;2023-04-26T11:01:52;97964.13;;;23.39;42.10
10658;BME280;5377;43.276;26.930;2023-04-26T11:04:19;97964.47;;;24.43;40.44
10658;BME280;5377;43.276;26.930;2023-04-26T11:06:47;97962.84;;;24.59;37.33
10658;BME280;5377;43.276;26.930;2023-04-26T11:09:34;97964.13;;;24.53;36.42
10658;BME280;5377;43.276;26.930;2023-04-26T11:12:03;97963.97;;;24.32;35.02
10658;BME280;5377;43.276;26.930;2023-04-26T11:14:32;97961.97;;;24.15;34.71
10658;BME280;5377;43.276;26.930;2023-04-26T11:17:02;97964.72;;;24.15;35.94
10658;BME280;5377;43.276;26.930;2023-04-26T11:19:30;97960.03;;;23.99;36.75
10658;BME280;5377;43.276;26.930;2023-04-26T11:21:57;97959.94;;;23.64;39.15
10658;BME280;5377;43.276;26.930;2023-04-26T11:24:25;97968.41;;;22.78;37.61
10658;BME280;5377;43.276;26.930;2023-04-26T11:26:52;97971.75;;;23.20;39.36
10658;BME280;5377;43.276;26.930;2023-04-26T11:29:19;97963.56;;;23.99;38.04
10658;BME280;5377;43.276;26.930;2023-04-26T11:31:52;97955.75;;;24.41;37.49
10658;BME280;5377;43.276;26.930;2023-04-26T11:34:23;97955.28;;;23.73;37.11
10658;BME280;5377;43.276;26.930;2023-04-26T11:36:56;97964.84;;;23.53;37.58
10658;BME280;5377;43.276;26.930;2023-04-26T11:39:23;97978.31;;;22.52;37.83
10658;BME280;5377;43.276;26.930;2023-04-26T11:41:50;97979.22;;;21.84;40.02
10658;BME280;5377;43.276;26.930;2023-04-26T11:44:17;97987.22;;;21.94;39.24
10658;BME280;5377;43.276;26.930;2023-04-26T11:46:46;97966.28;;;22.17;37.77
10658;BME280;5377;43.276;26.930;2023-04-26T11:49:16;97954.09;;;22.72;40.32
10658;BME280;5377;43.276;26.930;2023-04-26T11:51:45;97945.94;;;23.66;38.38
10658;BME280;5377;43.276;26.930;2023-04-26T11:54:26;97951.75;;;24.30;36.88
10658;BME280;5377;43.276;26.930;2023-04-26T11:56:52;97949.72;;;25.16;36.51
10658;BME280;5377;43.276;26.930;2023-04-26T11:59:23;97958.00;;;24.73;33.42
10658;BME280;5377;43.276;26.930;2023-04-26T12:01:50;97963.41;;;24.04;34.12
10658;BME280;5377;43.276;26.930;2023-04-26T12:04:19;97959.53;;;23.17;34.08
10658;BME280;5377;43.276;26.930;2023-04-26T12:06:52;97952.47;;;22.13;36.43
10658;BME280;5377;43.276;26.930;2023-04-26T12:09:21;97958.41;;;22.29;37.35
10658;BME280;5377;43.276;26.930;2023-04-26T12:11:52;97949.53;;;23.13;36.42
10658;BME280;5377;43.276;26.930;2023-04-26T12:14:22;97934.44;;;23.94;34.44
10658;BME280;5377;43.276;26.930;2023-04-26T12:16:48;97933.81;;;24.84;33.56
10658;BME280;5377;43.276;26.930;2023-04-26T12:19:15;97927.69;;;25.04;34.44
10658;BME280;5377;43.276;26.930;2023-04-26T12:21:45;97943.66;;;24.85;33.50
10658;BME280;5377;43.276;26.930;2023-04-26T12:24:22;97924.00;;;24.14;32.65
10658;BME280;5377;43.276;26.930;2023-04-26T12:26:48;97935.00;;;23.66;33.38
10658;BME280;5377;43.276;26.930;2023-04-26T12:29:15;97937.75;;;23.03;33.83
10658;BME280;5377;43.276;26.930;2023-04-26T12:31:42;97932.91;;;22.33;33.67
10658;BME280;5377;43.276;26.930;2023-04-26T12:34:09;97920.00;;;23.23;33.73
10658;BME280;5377;43.276;26.930;2023-04-26T12:36:36;97927.06;;;23.95;32.73
10658;BME280;5377;43.276;26.930;2023-04-26T12:39:05;97909.22;;;24.58;32.58
10658;BME280;5377;43.276;26.930;2023-04-26T12:41:32;97915.06;;;25.59;32.93
10658;BME280;5377;43.276;26.930;2023-04-26T12:43:59;97907.88;;;26.04;29.63
10658;BME280;5377;43.276;26.930;2023-04-26T12:46:26;97911.94;;;25.98;29.67
10658;BME280;5377;43.276;26.930;2023-04-26T12:48:53;97907.13;;;25.95;30.76
10658;BME280;5377;43.276;26.930;2023-04-26T12:51:19;97920.50;;;25.29;31.84
10658;BME280;5377;43.276;26.930;2023-04-26T12:53:46;97916.47;;;24.54;33.39
10658;BME280;5377;43.276;26.930;2023-04-26T12:56:14;97910.81;;;24.07;34.21
10658;BME280;5377;43.276;26.930;2023-04-26T12:58:41;97904.84;;;24.05;33.63
10658;BME280;5377;43.276;26.930;2023-04-26T13:01:08;97903.84;;;24.87;33.15